Disclaimer

Please do not use the information listed here in-flight or in-navigation, as they are not provided to us by the airports but are provided by volunteers, so they might be outdated.

Search


Regions


Airport information page

Radio informations:
COYHAIQUE GND - 5454 MHz

Airport informations:
Latitude: 45° 35' 39.16" S
Longitude: 072° 06' 22.08" W
Elevation: 1020 feet - 311 meters
Operating hours: From sunrise to sunset (SR-SS)
Operating agency: Civil government, landing fees and diplomatic clearance may be required
Timezone: UTC-4(-3DT)
Fuel: N/A

Runway information:
03/21 - 5072 x 98 feet< - >1546 x 30 meters

Recent METARs:
SCCY 201500Z VRB04KT 9999 -RA BKN030 OVC040 11/07 Q1001
SCCY 201500Z VRB04KT 9999 -RA BKN030 OVC040 11/07 Q1001
SCCY 201600Z 22005KT 140V270 9999 SCT030 OVC040 12/06 Q1000

Airport on the map: